To NAV CANADA Home Page Login to a new session Search on AWWS site Feedback and Comments Disclaimer Vers la page française équivalente Tips FAQ What's new on the site To the Forecasts and Observations / NOTAM section To "File a Flight Plan" website Publications and other links Update of the User's profile FIC Telephone Numbers My Weather Data Folder Route Weather Data Regional Weather Data Local Weather Data To the Forecasts and Observations / NOTAM section
Request Generated 05/26/2015 at 07:28:56 UTC . Weather information available at that time is displayed.

METAR/TAF

MEDICINE HAT/AB    (show WxCam)

METAR CYXH 260700Z AUTO 14005KT 9SM SCT100 BKN120 15/04 A2985 RMK
SLP105 DENSITY ALT 2900FT=
METAR CYXH 260600Z AUTO 11005KT 9SM BKN120 OVC150 17/05 A2984 RMK
SLP099 DENSITY ALT 3100FT=
METAR CYXH 260500Z AUTO 00000KT 9SM BKN120 19/04 A2984 RMK SLP096
DENSITY ALT 3400FT=

TAF CYXH 260538Z 2606/2618 VRB03KT P6SM SCT120
FM260900 09005KT P6SM FEW120
BECMG 2614/2615 22006KT
RMK FCST BASED ON AUTO OBS. NXT FCST BY 261200Z=
Your time UTC time
Weather data provided by Environment Canada and NAV CANADA